Brant — 5BBK2 — position and weather

sailwx.info

Track history (hours):
 
Tides and Currents Weather Stations Pressure Air Temp Water Temp Dewpoint Dewpoint Depression Visibility Wind Speed Wind Dir Waves Ship Positions

Brant

Last reported at 2015-Sep-01 05:25 UTC. Time now 2015-Sep-04 10:30 UTC.
Position S 25°37' W 048°08'.

Length 185 m; draft 10.4 m.

Type: Cargo ship. MMSI: 212372000.

Date/timePositionNaut miles runAvg speedWind from/ knotsBaromVisibWave heightAir tempDewpointWater temp
2015-Sep-01 05:25S 25°37' W 048°08'0 0.0
2015-Sep-01 00:13S 25°37' W 048°08'0 0.0
2015-Aug-31 14:10S 25°37' W 048°08'0 0.0
2015-Aug-31 08:25S 25°37' W 048°08'0 0.0
2015-Aug-31 03:31S 25°37' W 048°08'0 0.0
2015-Aug-31 02:31S 25°37' W 048°08'0 0.0
2015-Aug-31 01:31S 25°37' W 048°08'2 0.2
2015-Aug-30 11:04S 25°36' W 048°06'5 7.1
2015-Aug-30 10:18S 25°33' W 048°01'1012.3
2015-Aug-30 09:27S 25°31' W 047°49'1812.6
2015-Aug-30 08:04S 25°26' W 047°31'712.7
2015-Aug-30 07:32S 25°24' W 047°24'1312.8
2015-Aug-30 06:32S 25°21' W 047°10'1313.0
2015-Aug-30 05:33S 25°17' W 046°56'1212.4
2015-Aug-30 04:33S 25°15' W 046°43'1812.6
2015-Aug-30 03:08S 25°27' W 046°28'812.3
2015-Aug-30 02:30S 25°32' W 046°22'1411.9
2015-Aug-30 01:22S 25°41' W 046°10'  
Track history (hours):
 
Tides and Currents Weather Stations Pressure Air Temp Water Temp Dewpoint Dewpoint Depression Visibility Wind Speed Wind Dir Waves Ship Positions

Brant

Last reported at 2015-Sep-01 05:25 UTC. Time now 2015-Sep-04 10:30 UTC.
Position S 25°37' W 048°08'.

Length 185 m; draft 10.4 m.

Type: Cargo ship. MMSI: 212372000.

Date/timePositionNaut miles runAvg speedWind from/ knotsBaromVisibWave heightAir tempDewpointWater temp
2015-Sep-01 05:25S 25°37' W 048°08'0 0.0
2015-Sep-01 00:13S 25°37' W 048°08'0 0.0
2015-Aug-31 14:10S 25°37' W 048°08'0 0.0
2015-Aug-31 08:25S 25°37' W 048°08'0 0.0
2015-Aug-31 03:31S 25°37' W 048°08'0 0.0
2015-Aug-31 02:31S 25°37' W 048°08'0 0.0
2015-Aug-31 01:31S 25°37' W 048°08'2 0.2
2015-Aug-30 11:04S 25°36' W 048°06'5 7.1
2015-Aug-30 10:18S 25°33' W 048°01'1012.3
2015-Aug-30 09:27S 25°31' W 047°49'1812.6
2015-Aug-30 08:04S 25°26' W 047°31'712.7
2015-Aug-30 07:32S 25°24' W 047°24'1312.8
2015-Aug-30 06:32S 25°21' W 047°10'1313.0
2015-Aug-30 05:33S 25°17' W 046°56'1212.4
2015-Aug-30 04:33S 25°15' W 046°43'1812.6
2015-Aug-30 03:08S 25°27' W 046°28'812.3
2015-Aug-30 02:30S 25°32' W 046°22'1411.9
2015-Aug-30 01:22S 25°41' W 046°10'  

Dump ship's entire track history